Time;durP1;ratioP1;P1;durP2;ratioP2;P2;SDS_P1;SDS_P2;PMS_P1;PMS_P2;Temp;Humidity;BMP_temperature;BMP_pressure;BME280_temperature;BME280_humidity;BME280_pressure;Samples;Min_cycle;Max_cycle;Signal;HPM_P1;HPM_P2
2023/07/17 00:00:29;;;;;;;10.13;4.60;;;19.40;99.90;;;;;;5094656;28;20699;-49
2023/07/17 00:02:55;;;;;;;10.10;5.18;;;19.50;99.90;;;;;;5094450;28;20169;-50
2023/07/17 00:05:22;;;;;;;7.30;4.15;;;19.60;99.90;;;;;;5094700;28;20299;-48
2023/07/17 00:07:48;;;;;;;7.90;3.72;;;19.50;99.90;;;;;;5094834;28;20185;-52
2023/07/17 00:10:14;;;;;;;9.63;3.92;;;19.30;99.90;;;;;;5094648;28;20205;-52
2023/07/17 00:12:40;;;;;;;10.80;4.03;;;19.30;99.90;;;;;;5094833;28;20173;-51
2023/07/17 00:15:07;;;;;;;7.80;3.95;;;19.30;99.90;;;;;;5094493;28;20170;-49
2023/07/17 00:17:34;;;;;;;6.78;3.83;;;19.30;99.90;;;;;;5094433;28;20161;-50
2023/07/17 00:20:01;;;;;;;5.75;3.88;;;19.30;99.90;;;;;;5094340;28;20621;-48
2023/07/17 00:22:26;;;;;;;7.75;3.72;;;19.20;99.90;;;;;;5094285;28;20173;-51
2023/07/17 00:24:53;;;;;;;6.85;3.92;;;19.20;99.90;;;;;;5094221;28;20165;-49
2023/07/17 00:27:20;;;;;;;6.55;4.22;;;19.10;99.90;;;;;;5094188;28;20660;-49
2023/07/17 00:29:45;;;;;;;8.27;4.30;;;19.10;99.90;;;;;;5094089;28;20262;-48
2023/07/17 00:32:12;;;;;;;7.40;3.92;;;18.90;99.90;;;;;;5094541;28;20523;-49
2023/07/17 00:34:41;;;;;;;6.35;4.10;;;18.90;99.90;;;;;;5094020;28;20174;-48
2023/07/17 00:37:07;;;;;;;8.02;4.20;;;18.80;99.90;;;;;;5094244;28;20244;-49
2023/07/17 00:39:33;;;;;;;6.80;4.00;;;18.80;99.90;;;;;;5092890;28;20680;-48
2023/07/17 00:42:01;;;;;;;8.43;3.70;;;18.90;99.90;;;;;;5093746;28;20161;-48
2023/07/17 00:44:29;;;;;;;6.88;4.03;;;18.80;99.90;;;;;;5093960;28;20248;-50
2023/07/17 00:46:55;;;;;;;7.35;4.10;;;18.80;99.90;;;;;;5093887;28;20176;-51
2023/07/17 00:49:23;;;;;;;5.32;3.92;;;18.90;99.90;;;;;;5093932;28;20197;-49
2023/07/17 00:51:51;;;;;;;7.70;4.47;;;18.90;99.90;;;;;;5093761;28;20216;-52
2023/07/17 00:54:18;;;;;;;7.07;4.50;;;18.80;99.90;;;;;;5093993;28;20188;-50
2023/07/17 00:56:44;;;;;;;11.02;4.22;;;18.90;99.90;;;;;;5094075;28;20168;-51
2023/07/17 00:59:11;;;;;;;8.25;4.50;;;18.70;99.90;;;;;;5075785;28;20210;-48
2023/07/17 01:01:37;;;;;;;5.95;3.97;;;18.70;99.90;;;;;;5075483;28;20176;-49
2023/07/17 01:04:05;;;;;;;6.75;4.32;;;18.70;99.90;;;;;;5093740;28;20169;-49
2023/07/17 01:06:31;;;;;;;5.80;4.40;;;18.70;99.90;;;;;;5093356;28;20165;-51
2023/07/17 01:09:00;;;;;;;6.03;3.80;;;18.80;99.90;;;;;;5093300;28;20196;-48
2023/07/17 01:11:25;;;;;;;7.88;4.43;;;18.70;99.90;;;;;;5093087;28;20570;-50
2023/07/17 01:13:51;;;;;;;6.22;3.38;;;18.80;99.90;;;;;;5093341;28;20166;-48
2023/07/17 01:16:17;;;;;;;6.88;4.07;;;18.90;99.90;;;;;;5093229;28;20173;-48
2023/07/17 01:18:43;;;;;;;7.57;4.32;;;18.90;99.90;;;;;;5092411;28;20596;-48
2023/07/17 01:21:12;;;;;;;8.43;4.07;;;18.90;99.90;;;;;;5093143;28;20166;-49
2023/07/17 01:23:38;;;;;;;6.35;4.15;;;18.80;99.90;;;;;;5093352;28;20219;-50
2023/07/17 01:26:30;;;;;;;8.68;3.70;;;18.70;99.90;;;;;;5093308;28;20166;-48
2023/07/17 01:28:55;;;;;;;6.82;3.72;;;18.70;99.90;;;;;;5089204;28;20204;-49
2023/07/17 01:31:21;;;;;;;6.35;3.25;;;18.80;99.90;;;;;;5093006;28;20178;-49
2023/07/17 01:33:46;;;;;;;7.05;3.42;;;18.60;99.90;;;;;;5093137;28;20184;-47
2023/07/17 01:36:12;;;;;;;6.95;3.60;;;18.50;99.90;;;;;;5093258;28;20633;-49
2023/07/17 01:38:37;;;;;;;5.20;3.35;;;18.50;99.90;;;;;;5093086;28;20541;-51
2023/07/17 01:41:03;;;;;;;4.60;2.90;;;18.60;99.90;;;;;;5092771;28;20656;-48
2023/07/17 01:43:29;;;;;;;4.47;3.42;;;18.60;99.90;;;;;;5092738;28;20530;-48
2023/07/17 01:45:54;;;;;;;6.20;3.80;;;18.60;99.90;;;;;;5092737;28;20518;-50
2023/07/17 01:48:20;;;;;;;7.00;3.67;;;18.70;99.90;;;;;;5092585;28;20157;-48
2023/07/17 01:50:46;;;;;;;5.00;3.00;;;18.70;99.90;;;;;;5073891;28;20296;-49
2023/07/17 01:53:12;;;;;;;4.30;3.17;;;18.70;99.90;;;;;;5093028;28;20162;-51
2023/07/17 01:55:37;;;;;;;7.90;3.22;;;18.70;99.90;;;;;;5092504;28;20197;-49
2023/07/17 01:58:03;;;;;;;5.30;3.10;;;18.70;99.90;;;;;;5092483;28;20185;-50
2023/07/17 02:00:29;;;;;;;5.10;3.10;;;18.60;99.90;;;;;;5092677;28;20174;-49
2023/07/17 02:02:54;;;;;;;5.13;2.65;;;18.70;99.90;;;;;;5092476;28;20169;-50
2023/07/17 02:05:20;;;;;;;7.47;3.40;;;18.50;99.90;;;;;;5092310;28;20215;-49
2023/07/17 02:07:46;;;;;;;4.82;3.20;;;18.60;99.90;;;;;;5092546;28;20173;-49
2023/07/17 02:10:12;;;;;;;5.78;3.30;;;18.50;99.90;;;;;;5092330;28;20209;-48
2023/07/17 02:12:38;;;;;;;5.20;3.25;;;18.40;99.90;;;;;;5092354;28;20551;-51
2023/07/17 02:15:06;;;;;;;5.78;3.30;;;18.40;99.90;;;;;;5092095;28;20260;-50
2023/07/17 02:17:32;;;;;;;6.13;2.85;;;18.40;99.90;;;;;;5092150;28;20169;-50
2023/07/17 02:19:58;;;;;;;6.35;2.90;;;18.30;99.90;;;;;;5092333;28;20169;-48
2023/07/17 02:22:23;;;;;;;6.50;2.65;;;18.30;99.90;;;;;;5092068;28;20530;-50
2023/07/17 02:24:49;;;;;;;7.45;2.70;;;18.20;99.90;;;;;;5091971;28;20535;-50
2023/07/17 02:27:16;;;;;;;4.68;2.90;;;18.20;99.90;;;;;;5091953;28;20575;-49
2023/07/17 02:29:41;;;;;;;4.47;2.45;;;18.10;99.90;;;;;;5092209;28;20213;-52
2023/07/17 02:32:07;;;;;;;6.25;3.03;;;18.10;99.90;;;;;;5091839;28;20161;-48
2023/07/17 02:34:32;;;;;;;7.13;2.88;;;18.20;99.90;;;;;;5091805;28;20161;-48
2023/07/17 02:36:58;;;;;;;6.95;2.85;;;18.30;99.90;;;;;;5091907;28;20529;-48
2023/07/17 02:39:23;;;;;;;3.33;2.47;;;18.30;99.90;;;;;;5091827;28;20625;-48
2023/07/17 02:41:49;;;;;;;4.97;2.83;;;18.20;99.90;;;;;;5091770;28;20696;-48
2023/07/17 02:44:15;;;;;;;3.38;2.20;;;18.10;99.90;;;;;;5091668;28;20201;-48
2023/07/17 02:46:41;;;;;;;4.55;2.63;;;18.10;99.90;;;;;;5073966;28;20203;-48
2023/07/17 02:49:09;;;;;;;4.32;2.78;;;18.00;99.90;;;;;;5091623;28;20219;-47
2023/07/17 02:51:34;;;;;;;4.38;2.25;;;18.00;99.90;;;;;;5091863;28;20169;-48
2023/07/17 02:54:00;;;;;;;3.78;2.67;;;18.00;99.90;;;;;;5091518;28;20249;-48
2023/07/17 02:56:25;;;;;;;2.70;2.10;;;18.00;99.90;;;;;;5091653;28;20191;-48
2023/07/17 02:58:54;;;;;;;4.50;2.40;;;18.00;99.90;;;;;;5073592;28;20169;-48
2023/07/17 03:01:20;;;;;;;2.95;2.00;;;17.90;99.90;;;;;;5091572;28;20685;-48
2023/07/17 03:03:46;;;;;;;4.65;2.30;;;17.90;99.90;;;;;;5093258;28;20177;-48
2023/07/17 03:06:12;;;;;;;4.45;2.45;;;17.80;99.90;;;;;;5096118;28;20154;-48
2023/07/17 03:08:37;;;;;;;3.22;2.28;;;17.90;99.90;;;;;;5095620;28;20621;-48
2023/07/17 03:11:03;;;;;;;8.73;2.47;;;17.90;99.90;;;;;;5095502;28;20213;-48
2023/07/17 03:13:29;;;;;;;4.60;2.17;;;17.90;99.90;;;;;;5095614;28;20157;-49
2023/07/17 03:16:01;;;;;;;5.25;2.63;;;17.90;99.90;;;;;;5095896;28;20176;-50
2023/07/17 03:18:26;;;;;;;4.30;2.40;;;18.00;99.90;;;;;;5077862;28;20163;-52
2023/07/17 03:20:54;;;;;;;4.20;2.10;;;18.00;99.90;;;;;;5095792;28;20632;-51
2023/07/17 03:23:19;;;;;;;4.60;2.95;;;17.90;99.90;;;;;;5095245;28;20189;-49
2023/07/17 03:25:45;;;;;;;4.85;2.88;;;18.00;99.90;;;;;;5095379;28;20226;-51
2023/07/17 03:28:10;;;;;;;4.25;2.30;;;18.00;99.90;;;;;;5095801;28;20644;-49
2023/07/17 03:30:36;;;;;;;4.97;2.67;;;18.00;99.90;;;;;;5095234;28;20574;-51
2023/07/17 03:33:03;;;;;;;4.05;2.40;;;18.00;99.90;;;;;;5095315;28;20158;-50
2023/07/17 03:35:28;;;;;;;4.18;2.40;;;17.90;99.90;;;;;;5095214;28;20180;-49
2023/07/17 03:37:54;;;;;;;3.85;2.55;;;17.90;99.90;;;;;;5095187;28;20165;-49
2023/07/17 03:40:19;;;;;;;6.93;3.10;;;17.90;99.90;;;;;;5095092;28;20203;-49
2023/07/17 03:42:45;;;;;;;6.35;3.40;;;18.00;99.90;;;;;;5095094;28;20169;-52
2023/07/17 03:45:11;;;;;;;6.78;2.45;;;17.70;99.90;;;;;;5095357;28;20168;-48
2023/07/17 03:47:36;;;;;;;5.35;2.85;;;17.70;99.90;;;;;;5094966;28;20202;-48
2023/07/17 03:50:02;;;;;;;3.78;2.80;;;17.80;99.90;;;;;;5094794;28;20569;-49
2023/07/17 03:52:28;;;;;;;5.50;2.60;;;17.80;99.90;;;;;;5095144;28;20200;-49
2023/07/17 03:54:53;;;;;;;4.30;2.70;;;17.80;99.90;;;;;;5094783;28;20169;-52
2023/07/17 03:57:19;;;;;;;4.30;2.58;;;17.80;99.90;;;;;;5076533;28;20165;-50
2023/07/17 03:59:52;;;;;;;9.60;3.47;;;17.80;99.90;;;;;;5076487;28;20169;-51
2023/07/17 04:02:18;;;;;;;4.93;2.83;;;17.70;99.90;;;;;;5094453;28;20153;-50
2023/07/17 04:04:43;;;;;;;5.00;2.75;;;17.70;99.90;;;;;;5094866;28;20177;-49
2023/07/17 04:07:09;;;;;;;5.72;3.13;;;17.80;99.90;;;;;;5095245;28;20248;-49
2023/07/17 04:09:35;;;;;;;5.63;3.03;;;17.70;99.90;;;;;;5076232;28;20590;-49
2023/07/17 04:12:03;;;;;;;5.72;3.00;;;17.70;99.90;;;;;;5094294;28;20275;-50
2023/07/17 04:14:31;;;;;;;5.50;2.75;;;17.70;99.90;;;;;;5094302;28;20169;-49
2023/07/17 04:16:57;;;;;;;5.63;3.45;;;17.70;99.90;;;;;;5094338;28;20170;-49
2023/07/17 04:19:23;;;;;;;4.82;2.83;;;17.70;99.90;;;;;;5094397;28;20165;-49
2023/07/17 04:21:49;;;;;;;3.35;2.67;;;17.80;99.90;;;;;;5094558;28;20559;-49
2023/07/17 04:24:15;;;;;;;8.13;3.20;;;17.80;99.90;;;;;;5094231;28;20153;-49
2023/07/17 04:26:40;;;;;;;6.93;2.90;;;17.70;99.90;;;;;;5094683;28;20632;-49
2023/07/17 04:29:06;;;;;;;4.13;2.88;;;17.70;99.90;;;;;;5093999;28;20691;-49
2023/07/17 04:31:32;;;;;;;4.13;2.53;;;17.70;99.90;;;;;;5094411;28;20231;-53
2023/07/17 04:33:58;;;;;;;5.93;3.05;;;17.70;99.90;;;;;;5094198;28;20177;-49
2023/07/17 04:36:24;;;;;;;4.68;2.75;;;17.70;99.90;;;;;;5093783;28;20210;-49
2023/07/17 04:38:49;;;;;;;6.70;3.22;;;17.70;99.90;;;;;;5094032;28;20624;-48
2023/07/17 04:41:16;;;;;;;4.85;2.60;;;17.80;99.90;;;;;;5093739;28;20700;-48
2023/07/17 04:43:42;;;;;;;6.80;3.05;;;17.90;99.90;;;;;;5094517;28;20184;-49
2023/07/17 04:46:07;;;;;;;5.65;2.75;;;18.00;99.90;;;;;;5093861;28;20518;-49
2023/07/17 04:48:33;;;;;;;6.10;2.63;;;18.20;99.90;;;;;;5075537;28;20173;-49
2023/07/17 04:50:59;;;;;;;4.93;2.60;;;18.20;99.90;;;;;;5092415;28;20259;-48
2023/07/17 04:53:24;;;;;;;4.95;3.17;;;18.20;99.90;;;;;;5093965;28;20161;-49
2023/07/17 04:55:50;;;;;;;5.32;2.80;;;18.30;99.90;;;;;;5093655;28;20169;-49
2023/07/17 04:58:17;;;;;;;6.13;2.55;;;18.40;99.90;;;;;;5092274;28;20165;-48
2023/07/17 05:00:46;;;;;;;3.53;2.58;;;18.40;99.90;;;;;;5093626;28;20161;-49
2023/07/17 05:03:12;;;;;;;5.40;3.17;;;18.40;99.90;;;;;;5094244;28;20177;-48
2023/07/17 05:05:38;;;;;;;5.00;2.75;;;18.50;99.90;;;;;;5093885;28;20249;-49
2023/07/17 05:08:04;;;;;;;4.70;2.63;;;18.40;99.90;;;;;;5093289;28;20267;-49
2023/07/17 05:10:29;;;;;;;5.97;2.85;;;18.40;99.90;;;;;;5093059;28;20215;-49
2023/07/17 05:12:55;;;;;;;8.90;3.55;;;18.40;99.90;;;;;;5093081;28;20177;-49
2023/07/17 05:15:21;;;;;;;3.50;2.25;;;18.50;99.90;;;;;;5093065;28;20218;-49
2023/07/17 05:17:46;;;;;;;5.15;2.85;;;18.50;99.90;;;;;;5074885;28;20161;-49
2023/07/17 05:20:12;;;;;;;5.47;2.50;;;18.60;99.90;;;;;;5093306;28;20730;-49
2023/07/17 05:22:38;;;;;;;3.78;2.58;;;18.60;99.90;;;;;;5093496;28;20172;-49
2023/07/17 05:25:04;;;;;;;6.32;2.90;;;18.60;99.90;;;;;;5093066;28;20166;-49
2023/07/17 05:27:29;;;;;;;4.85;2.97;;;18.50;99.90;;;;;;5092481;28;20176;-49
2023/07/17 05:29:55;;;;;;;4.05;2.50;;;18.50;99.90;;;;;;5092871;28;20228;-49
2023/07/17 05:32:20;;;;;;;4.63;3.08;;;18.50;99.90;;;;;;5092917;28;20185;-49
2023/07/17 05:34:46;;;;;;;3.78;2.40;;;18.60;99.90;;;;;;5091643;28;20539;-49
2023/07/17 05:37:12;;;;;;;6.65;2.95;;;18.50;99.90;;;;;;5093257;28;20169;-49
2023/07/17 05:39:37;;;;;;;5.22;2.65;;;18.70;99.90;;;;;;5093482;28;20176;-50
2023/07/17 05:42:03;;;;;;;5.25;2.63;;;18.90;99.90;;;;;;5092815;28;20165;-49
2023/07/17 05:44:29;;;;;;;7.30;3.15;;;18.80;99.90;;;;;;5093057;28;20260;-50
2023/07/17 05:46:54;;;;;;;4.53;2.78;;;18.80;99.90;;;;;;5092603;28;20520;-50
2023/07/17 05:49:20;;;;;;;4.25;2.50;;;18.70;99.90;;;;;;5092537;28;20349;-50
2023/07/17 05:51:45;;;;;;;5.55;2.63;;;18.70;99.90;;;;;;5092596;28;20586;-49
2023/07/17 05:54:11;;;;;;;4.38;2.83;;;18.70;99.90;;;;;;5092947;28;20187;-50
2023/07/17 05:56:36;;;;;;;5.80;3.10;;;18.70;99.90;;;;;;5092445;28;20166;-49
2023/07/17 05:59:02;;;;;;;6.63;3.13;;;18.60;99.90;;;;;;5092443;28;20226;-49
2023/07/17 06:01:28;;;;;;;5.38;2.80;;;18.80;99.90;;;;;;5092363;28;20621;-49
2023/07/17 06:03:54;;;;;;;5.20;2.25;;;18.80;99.90;;;;;;5092318;28;20176;-49
2023/07/17 06:06:19;;;;;;;7.40;2.90;;;18.80;99.90;;;;;;5092323;28;20159;-49
2023/07/17 06:08:45;;;;;;;6.85;3.40;;;18.90;99.90;;;;;;5092144;28;20178;-49
2023/07/17 06:11:10;;;;;;;5.75;3.03;;;18.90;99.90;;;;;;5092589;28;20225;-49
2023/07/17 06:13:36;;;;;;;9.63;3.78;;;19.00;99.90;;;;;;5092162;28;20157;-49
2023/07/17 06:16:02;;;;;;;5.13;2.90;;;19.10;99.90;;;;;;5092389;28;20173;-49
2023/07/17 06:18:28;;;;;;;5.43;2.70;;;19.00;99.90;;;;;;5092407;28;20175;-49
2023/07/17 06:20:53;;;;;;;3.45;2.70;;;19.00;99.90;;;;;;5092085;28;20236;-49
2023/07/17 06:23:19;;;;;;;4.55;2.88;;;19.20;99.90;;;;;;5092083;28;20165;-49
2023/07/17 06:25:45;;;;;;;6.63;2.90;;;19.10;99.90;;;;;;5092005;28;20173;-49
2023/07/17 06:28:11;;;;;;;5.50;3.55;;;19.00;99.90;;;;;;5092391;28;20167;-49
2023/07/17 06:30:37;;;;;;;8.73;3.22;;;19.10;99.90;;;;;;5092173;28;20570;-49
2023/07/17 06:33:02;;;;;;;7.40;3.05;;;19.40;99.90;;;;;;5091927;28;20176;-49
2023/07/17 06:35:28;;;;;;;10.10;3.22;;;19.50;99.90;;;;;;5091855;28;20248;-49
2023/07/17 06:37:53;;;;;;;4.47;2.90;;;19.50;99.90;;;;;;5091828;28;20677;-49
2023/07/17 06:40:19;;;;;;;8.45;3.15;;;19.60;99.90;;;;;;5091767;28;20688;-49
2023/07/17 06:42:45;;;;;;;7.95;3.13;;;19.70;99.90;;;;;;5091761;28;20239;-50
2023/07/17 06:45:11;;;;;;;7.45;3.15;;;19.70;99.90;;;;;;5092268;28;20172;-50
2023/07/17 06:47:37;;;;;;;5.28;3.00;;;19.90;99.90;;;;;;5092232;28;20172;-52
2023/07/17 06:50:02;;;;;;;5.65;3.45;;;19.90;99.90;;;;;;5091875;28;20212;-51
2023/07/17 06:52:28;;;;;;;5.93;3.20;;;19.70;99.90;;;;;;5091717;28;20192;-52
2023/07/17 06:54:54;;;;;;;5.82;2.85;;;19.50;99.90;;;;;;5091678;28;20176;-50
2023/07/17 06:57:20;;;;;;;8.88;2.97;;;19.70;99.90;;;;;;5091616;28;20272;-50
2023/07/17 06:59:46;;;;;;;7.25;3.70;;;19.80;99.90;;;;;;5091838;28;20185;-50
2023/07/17 07:02:12;;;;;;;5.03;3.55;;;19.80;99.90;;;;;;5091925;28;20218;-50
2023/07/17 07:04:38;;;;;;;6.28;3.00;;;19.90;99.90;;;;;;5091977;28;20193;-51
2023/07/17 07:07:04;;;;;;;7.13;3.53;;;20.00;99.90;;;;;;5091440;28;20188;-51
2023/07/17 07:09:29;;;;;;;6.22;3.60;;;20.10;99.90;;;;;;5091371;28;20243;-50
2023/07/17 07:11:55;;;;;;;7.25;3.70;;;20.00;99.90;;;;;;5091306;28;20217;-51
2023/07/17 07:14:20;;;;;;;8.63;4.05;;;19.70;99.90;;;;;;5091361;28;20640;-51
2023/07/17 07:16:46;;;;;;;7.60;4.35;;;19.80;99.90;;;;;;5091361;28;20169;-50
2023/07/17 07:19:11;;;;;;;6.53;4.22;;;20.00;99.90;;;;;;5091543;28;20161;-49
2023/07/17 07:21:37;;;;;;;7.82;4.55;;;20.00;99.90;;;;;;5091742;28;20640;-49
2023/07/17 07:24:03;;;;;;;6.35;4.18;;;19.80;99.90;;;;;;5091626;28;20181;-51
2023/07/17 07:26:31;;;;;;;5.30;3.90;;;19.90;99.90;;;;;;5091582;28;20178;-50
2023/07/17 07:28:56;;;;;;;8.00;4.53;;;20.10;99.90;;;;;;5091237;28;20185;-49
2023/07/17 07:31:22;;;;;;;7.97;4.65;;;20.20;99.90;;;;;;5091281;28;20166;-50
2023/07/17 07:33:48;;;;;;;6.47;4.38;;;20.20;99.90;;;;;;5091214;28;20669;-50
2023/07/17 07:36:13;;;;;;;8.18;4.95;;;20.10;99.90;;;;;;5091197;28;20165;-49
2023/07/17 07:38:39;;;;;;;5.90;4.20;;;20.40;99.90;;;;;;5091887;28;20175;-49
2023/07/17 07:41:05;;;;;;;10.75;5.15;;;20.30;99.90;;;;;;5091400;28;20204;-50
2023/07/17 07:43:30;;;;;;;8.10;4.25;;;20.50;99.90;;;;;;5091221;28;20165;-49
2023/07/17 07:45:56;;;;;;;8.55;4.45;;;20.70;99.90;;;;;;5091317;28;20170;-50
2023/07/17 07:48:22;;;;;;;5.90;3.15;;;20.30;99.90;;;;;;5091211;28;20189;-49
2023/07/17 07:50:47;;;;;;;6.78;4.50;;;20.40;99.90;;;;;;5094228;28;20201;-49
2023/07/17 07:53:13;;;;;;;6.72;4.03;;;20.70;99.90;;;;;;5094870;28;20625;-51
2023/07/17 07:55:38;;;;;;;7.45;4.60;;;21.00;99.90;;;;;;5095103;28;20161;-49
2023/07/17 07:58:04;;;;;;;8.82;4.28;;;21.30;99.90;;;;;;5094738;28;20617;-50
2023/07/17 08:00:30;;;;;;;8.82;4.13;;;21.20;99.90;;;;;;5094936;28;20647;-50
2023/07/17 08:02:56;;;;;;;9.63;5.05;;;21.10;99.90;;;;;;5094703;28;20165;-52
2023/07/17 08:05:22;;;;;;;8.32;4.22;;;21.40;99.90;;;;;;5094888;28;20205;-51
2023/07/17 08:07:48;;;;;;;7.35;4.50;;;21.50;99.90;;;;;;5094636;28;20165;-50
2023/07/17 08:10:14;;;;;;;8.52;4.80;;;21.40;99.90;;;;;;5094516;28;20205;-51
2023/07/17 08:12:39;;;;;;;6.15;4.55;;;21.40;99.90;;;;;;5094832;28;20177;-49
2023/07/17 08:15:07;;;;;;;8.95;4.93;;;21.50;99.90;;;;;;5094622;28;20161;-50
2023/07/17 08:17:36;;;;;;;10.80;4.95;;;21.50;99.90;;;;;;5094639;28;20170;-50
2023/07/17 08:20:03;;;;;;;8.98;4.85;;;21.50;99.90;;;;;;5094309;28;20177;-50
2023/07/17 08:22:29;;;;;;;8.77;4.30;;;21.30;99.90;;;;;;5094252;28;20638;-49
2023/07/17 08:24:55;;;;;;;8.05;4.35;;;21.50;99.90;;;;;;5094321;28;20169;-50
2023/07/17 08:27:20;;;;;;;8.80;4.35;;;21.60;99.90;;;;;;5094181;28;20162;-49
2023/07/17 08:29:46;;;;;;;7.45;4.15;;;21.70;99.90;;;;;;5094125;28;20196;-49
2023/07/17 08:32:11;;;;;;;9.05;4.90;;;21.40;99.90;;;;;;5094020;28;20215;-52
2023/07/17 08:34:37;;;;;;;7.82;4.50;;;21.20;99.90;;;;;;5094594;28;20174;-49
2023/07/17 08:37:02;;;;;;;8.23;4.53;;;21.70;99.90;;;;;;5094012;28;20177;-52
2023/07/17 08:39:28;;;;;;;7.03;4.35;;;21.70;99.90;;;;;;5094300;28;20244;-52
2023/07/17 08:41:54;;;;;;;9.70;4.80;;;21.80;99.90;;;;;;5093938;28;20169;-53
2023/07/17 08:44:20;;;;;;;8.80;4.90;;;21.60;99.90;;;;;;5093999;28;20165;-53
2023/07/17 08:46:47;;;;;;;10.45;4.78;;;22.00;99.90;;;;;;5094125;28;20307;-52
2023/07/17 08:49:16;;;;;;;7.65;4.45;;;22.00;99.90;;;;;;5093710;28;20240;-49
2023/07/17 08:51:42;;;;;;;7.97;4.50;;;22.10;99.90;;;;;;5093999;28;20172;-49
2023/07/17 08:54:09;;;;;;;11.10;4.90;;;22.30;99.90;;;;;;5094254;28;20189;-50
2023/07/17 08:56:35;;;;;;;10.95;4.45;;;22.30;99.90;;;;;;5093698;28;20173;-49
2023/07/17 08:59:02;;;;;;;11.35;4.80;;;22.10;99.90;;;;;;5093613;28;20200;-49
2023/07/17 09:01:28;;;;;;;7.50;5.10;;;22.10;99.90;;;;;;5092301;28;20169;-49
2023/07/17 09:03:54;;;;;;;12.70;4.80;;;22.10;99.90;;;;;;5094153;28;20162;-49
2023/07/17 09:06:27;;;;;;;7.00;4.30;;;22.20;99.90;;;;;;5093851;28;20578;-49
2023/07/17 09:08:53;;;;;;;7.65;4.22;;;22.40;99.90;;;;;;5093368;28;20165;-49
2023/07/17 09:11:19;;;;;;;7.88;4.85;;;22.00;99.90;;;;;;5093341;28;20274;-49
2023/07/17 09:13:46;;;;;;;7.35;4.80;;;21.90;99.90;;;;;;5093541;28;20200;-49
2023/07/17 09:16:23;;;;;;;8.02;4.70;;;22.40;99.90;;;;;;5093246;28;20179;-49
2023/07/17 09:18:52;;;;;;;5.90;4.32;;;22.30;99.90;;;;;;5093638;28;20169;-49
2023/07/17 09:21:20;;;;;;;6.68;4.30;;;22.30;99.90;;;;;;5093143;28;20256;-49
2023/07/17 09:23:46;;;;;;;6.85;4.43;;;22.60;99.90;;;;;;5093155;28;20172;-49
2023/07/17 09:26:16;;;;;;;6.78;4.40;;;23.00;99.90;;;;;;5093296;28;20169;-50
2023/07/17 09:28:46;;;;;;;8.43;4.63;;;23.10;99.90;;;;;;5092951;28;20170;-49
2023/07/17 09:31:12;;;;;;;5.82;4.63;;;23.20;99.90;;;;;;5093017;28;20153;-49
2023/07/17 09:33:37;;;;;;;7.30;5.00;;;23.00;99.90;;;;;;5093348;28;20169;-49
2023/07/17 09:36:03;;;;;;;8.18;5.03;;;23.30;99.90;;;;;;5092874;28;20165;-49
2023/07/17 09:38:32;;;;;;;8.52;4.32;;;23.00;99.90;;;;;;5092821;28;20199;-49
2023/07/17 09:40:57;;;;;;;6.32;4.35;;;22.70;99.90;;;;;;5092715;28;20165;-49
2023/07/17 09:43:30;;;;;;;7.70;4.60;;;22.60;99.90;;;;;;5091505;28;20263;-50
2023/07/17 09:46:00;;;;;;;5.88;4.18;;;22.60;99.90;;;;;;5092597;28;20611;-49
2023/07/17 09:48:30;;;;;;;7.38;4.78;;;22.60;99.90;;;;;;5092673;28;20240;-49
2023/07/17 09:50:57;;;;;;;7.68;5.57;;;22.60;99.90;;;;;;5092526;28;20200;-50
2023/07/17 09:53:24;;;;;;;9.77;4.80;;;22.60;99.90;;;;;;5092804;28;20311;-50
2023/07/17 09:55:51;;;;;;;9.00;5.18;;;23.30;99.90;;;;;;5092517;28;20177;-51
2023/07/17 09:58:18;;;;;;;5.78;4.80;;;23.40;99.90;;;;;;5092535;28;20206;-50
2023/07/17 10:00:48;;;;;;;6.47;4.68;;;23.60;99.90;;;;;;5092342;28;20244;-52
2023/07/17 10:03:17;;;;;;;10.55;6.10;;;23.50;99.90;;;;;;5074171;28;20169;-49
2023/07/17 10:05:43;;;;;;;10.88;5.65;;;23.40;99.90;;;;;;5092617;28;20234;-50
2023/07/17 10:08:10;;;;;;;8.15;5.10;;;23.20;99.90;;;;;;5092994;28;20252;-51
2023/07/17 10:10:37;;;;;;;10.52;5.70;;;23.10;99.90;;;;;;5092613;28;20221;-53
2023/07/17 10:13:03;;;;;;;10.43;5.40;;;23.10;99.90;;;;;;5074100;28;20518;-50
2023/07/17 10:15:30;;;;;;;8.05;4.82;;;23.60;99.90;;;;;;5092210;28;20164;-56
2023/07/17 10:17:57;;;;;;;7.95;5.15;;;23.70;99.90;;;;;;5092124;28;20250;-50
2023/07/17 10:20:24;;;;;;;11.10;4.97;;;23.80;99.90;;;;;;5092178;28;20161;-50
2023/07/17 10:22:49;;;;;;;7.18;4.18;;;24.10;99.90;;;;;;5092112;28;20647;-49
2023/07/17 10:25:18;;;;;;;8.55;5.22;;;24.00;99.90;;;;;;5092097;28;20165;-50
2023/07/17 10:27:52;;;;;;;7.32;4.88;;;23.50;99.90;;;;;;5092015;28;20165;-50
2023/07/17 10:30:30;;;;;;;8.75;5.57;;;23.50;99.90;;;;;;5073846;28;20277;-50
2023/07/17 10:33:16;;;;;;;7.22;4.63;;;23.80;99.90;;;;;;5091927;28;20161;-49
2023/07/17 10:35:47;;;;;;;6.97;4.60;;;23.70;99.90;;;;;;5091801;28;20196;-51
2023/07/17 10:38:18;;;;;;;9.52;5.22;;;24.00;99.90;;;;;;5073595;28;20176;-49
2023/07/17 10:40:45;;;;;;;10.88;4.75;;;24.10;99.90;;;;;;5092023;28;20172;-50
2023/07/17 10:43:18;;;;;;;8.85;5.22;;;24.50;99.90;;;;;;5092018;28;20160;-49
2023/07/17 10:45:47;;;;;;;7.32;4.07;;;24.70;99.90;;;;;;5091728;28;20173;-48
2023/07/17 10:48:13;;;;;;;8.80;5.38;;;24.80;99.90;;;;;;5056953;28;20631;-52
2023/07/17 10:50:47;;;;;;;9.75;4.75;;;24.40;99.90;;;;;;5092118;28;20353;-52
2023/07/17 10:53:12;;;;;;;7.38;4.95;;;24.60;99.90;;;;;;5091947;28;20584;-51
2023/07/17 10:55:38;;;;;;;6.93;4.82;;;24.90;99.90;;;;;;5092037;28;20194;-50
2023/07/17 10:58:04;;;;;;;8.25;4.10;;;25.20;99.90;;;;;;5091584;28;20211;-51
2023/07/17 11:00:32;;;;;;;7.32;4.60;;;25.20;99.90;;;;;;5091529;28;20176;-52
2023/07/17 11:02:58;;;;;;;8.07;4.45;;;25.20;99.90;;;;;;5091636;28;20163;-50
2023/07/17 11:05:24;;;;;;;7.95;4.53;;;24.70;99.90;;;;;;5091516;28;20166;-52
2023/07/17 11:07:50;;;;;;;7.07;4.95;;;24.50;99.90;;;;;;5091488;28;20586;-52
2023/07/17 11:10:15;;;;;;;9.10;5.28;;;24.40;99.90;;;;;;5091306;28;20645;-51
2023/07/17 11:12:42;;;;;;;9.10;4.85;;;24.60;99.90;;;;;;5091519;28;20175;-52
2023/07/17 11:15:18;;;;;;;6.95;4.65;;;24.50;99.90;;;;;;5091829;28;20575;-52
2023/07/17 11:17:45;;;;;;;10.75;5.70;;;24.60;99.90;;;;;;5091043;28;20168;-49
2023/07/17 11:20:12;;;;;;;6.93;4.90;;;24.80;99.90;;;;;;5091575;28;20168;-50
2023/07/17 11:22:40;;;;;;;12.48;5.20;;;24.80;99.90;;;;;;5092081;28;20172;-50
2023/07/17 11:25:10;;;;;;;11.27;4.97;;;24.50;99.90;;;;;;5094096;28;20192;-51
2023/07/17 11:27:36;;;;;;;8.32;5.03;;;24.90;99.90;;;;;;5077498;28;20173;-52
2023/07/17 11:30:25;;;;;;;10.02;5.43;;;25.00;99.90;;;;;;5095301;28;20659;-50
2023/07/17 11:32:57;;;;;;;8.88;4.85;;;25.20;99.90;;;;;;5095248;28;20157;-51
2023/07/17 11:35:43;;;;;;;8.93;5.15;;;25.20;99.90;;;;;;5095426;28;20177;-52
2023/07/17 11:38:11;;;;;;;8.57;5.13;;;25.00;99.90;;;;;;5094983;28;20204;-50
2023/07/17 11:40:49;;;;;;;6.43;4.97;;;24.40;99.90;;;;;;5095643;28;20161;-50
2023/07/17 11:43:22;;;;;;;8.43;5.05;;;24.90;99.90;;;;;;5095322;28;20169;-49
2023/07/17 11:45:47;;;;;;;10.05;5.07;;;24.60;99.90;;;;;;5095102;28;20176;-49
2023/07/17 11:48:13;;;;;;;9.50;5.18;;;24.50;99.90;;;;;;5095325;28;20620;-50
2023/07/17 11:50:40;;;;;;;7.00;5.28;;;24.50;99.90;;;;;;5094810;28;20204;-50
2023/07/17 11:53:07;;;;;;;8.35;4.65;;;24.50;99.90;;;;;;5095339;28;20157;-50
2023/07/17 11:55:37;;;;;;;8.80;4.90;;;24.40;99.90;;;;;;5095183;28;20168;-50
2023/07/17 11:58:13;;;;;;;6.38;5.25;;;24.50;99.90;;;;;;5094831;28;20157;-51
2023/07/17 12:00:46;;;;;;;8.65;5.35;;;24.50;99.90;;;;;;5095427;28;20596;-49
2023/07/17 12:03:12;;;;;;;10.55;5.55;;;24.40;99.90;;;;;;5094670;28;20157;-50
2023/07/17 12:05:39;;;;;;;7.32;5.18;;;24.40;99.90;;;;;;5095063;28;20282;-50
2023/07/17 12:08:05;;;;;;;6.15;4.85;;;24.40;99.90;;;;;;5094574;28;20161;-49
2023/07/17 12:10:32;;;;;;;7.15;4.72;;;24.20;99.90;;;;;;5094317;28;20251;-49
2023/07/17 12:12:58;;;;;;;6.50;5.05;;;24.50;99.90;;;;;;5094483;28;20161;-50
2023/07/17 12:15:23;;;;;;;6.22;5.40;;;24.50;99.90;;;;;;5093675;28;20218;-50
2023/07/17 12:17:50;;;;;;;7.82;5.53;;;24.60;99.90;;;;;;5094270;28;20176;-50
2023/07/17 12:20:16;;;;;;;8.07;5.07;;;24.80;99.90;;;;;;5094065;28;20248;-50
2023/07/17 12:22:42;;;;;;;6.68;4.97;;;24.90;99.90;;;;;;5094196;28;20295;-49
2023/07/17 12:25:08;;;;;;;9.15;4.93;;;24.90;99.90;;;;;;5094540;28;20268;-49
2023/07/17 12:27:33;;;;;;;7.63;5.00;;;24.70;99.90;;;;;;5094250;28;20183;-49
2023/07/17 12:29:59;;;;;;;8.60;5.50;;;24.90;99.90;;;;;;5093669;28;20204;-49
2023/07/17 12:32:25;;;;;;;11.00;5.25;;;24.70;99.90;;;;;;5093660;28;20161;-49
2023/07/17 12:34:50;;;;;;;7.97;4.90;;;24.80;99.90;;;;;;5094005;28;20575;-49
2023/07/17 12:37:16;;;;;;;9.07;5.05;;;24.90;99.00;;;;;;5075352;28;20171;-50
2023/07/17 12:39:42;;;;;;;8.52;5.30;;;24.80;98.50;;;;;;5093733;28;20169;-50
2023/07/17 12:42:07;;;;;;;7.75;4.72;;;24.80;98.90;;;;;;5092708;28;20260;-50